Terminal Aerodrome Forecast
Issued by NWS Sioux Falls, SD

Home | Current Version | Previous Version | Graphics & Text | Print | Product List | Glossary On
Versions: 1 2 3 4 5 6 7 8 9 10 11 12 13 14 15 16 17 18 19
000
FTUS43 KFSD 151100
TAFFSD
TAF
KFSD 151126Z 1512/1612 VRB03KT P6SM SKC
     FM151500 16009KT P6SM FEW120
     FM151900 17016G22KT P6SM SCT120
     FM152300 15018G26KT P6SM BKN120
     FM160600 14015KT P6SM SCT080 BKN100 WS010/20040KT=

USA.gov is the U.S. government's official web portal to all federal, state and local government web resources and services.